sensor_id;sensor_type;location;lat;lon;timestamp;temperature;humidity
28484;DHT22;15704;48.834;8.736;2023-06-26T00:00:02;24.30;71.30
28484;DHT22;15704;48.834;8.736;2023-06-26T00:02:31;24.30;71.40
28484;DHT22;15704;48.834;8.736;2023-06-26T00:04:59;24.30;71.70
28484;DHT22;15704;48.834;8.736;2023-06-26T00:07:30;24.30;71.70
28484;DHT22;15704;48.834;8.736;2023-06-26T00:09:57;24.20;71.90
28484;DHT22;15704;48.834;8.736;2023-06-26T00:12:25;24.20;72.20
28484;DHT22;15704;48.834;8.736;2023-06-26T00:14:52;24.20;72.20
28484;DHT22;15704;48.834;8.736;2023-06-26T00:17:19;24.20;72.50
28484;DHT22;15704;48.834;8.736;2023-06-26T00:19:46;24.20;72.40
28484;DHT22;15704;48.834;8.736;2023-06-26T00:22:13;24.20;72.70
28484;DHT22;15704;48.834;8.736;2023-06-26T00:24:40;24.30;72.50
28484;DHT22;15704;48.834;8.736;2023-06-26T00:27:07;24.20;72.50
28484;DHT22;15704;48.834;8.736;2023-06-26T00:29:33;24.20;72.60
28484;DHT22;15704;48.834;8.736;2023-06-26T00:32:00;24.20;72.70
28484;DHT22;15704;48.834;8.736;2023-06-26T00:34:27;24.20;72.90
28484;DHT22;15704;48.834;8.736;2023-06-26T00:36:54;24.20;72.80
28484;DHT22;15704;48.834;8.736;2023-06-26T00:39:20;24.10;72.40
28484;DHT22;15704;48.834;8.736;2023-06-26T00:41:47;24.10;72.30
28484;DHT22;15704;48.834;8.736;2023-06-26T00:44:14;24.10;72.30
28484;DHT22;15704;48.834;8.736;2023-06-26T00:46:41;24.10;72.60
28484;DHT22;15704;48.834;8.736;2023-06-26T00:49:08;24.10;72.20
28484;DHT22;15704;48.834;8.736;2023-06-26T00:51:35;24.10;72.60
28484;DHT22;15704;48.834;8.736;2023-06-26T00:54:02;24.10;72.50
28484;DHT22;15704;48.834;8.736;2023-06-26T00:56:30;24.10;72.30
28484;DHT22;15704;48.834;8.736;2023-06-26T00:58:58;24.10;72.30
28484;DHT22;15704;48.834;8.736;2023-06-26T01:01:24;24.10;72.30
28484;DHT22;15704;48.834;8.736;2023-06-26T01:03:53;24.10;72.60
28484;DHT22;15704;48.834;8.736;2023-06-26T01:06:22;24.10;72.70
28484;DHT22;15704;48.834;8.736;2023-06-26T01:08:50;24.00;72.70
28484;DHT22;15704;48.834;8.736;2023-06-26T01:11:18;24.00;72.80
28484;DHT22;15704;48.834;8.736;2023-06-26T01:13:45;24.00;72.90
28484;DHT22;15704;48.834;8.736;2023-06-26T01:16:12;24.00;73.10
28484;DHT22;15704;48.834;8.736;2023-06-26T01:18:40;24.00;73.00
28484;DHT22;15704;48.834;8.736;2023-06-26T01:21:09;24.00;73.10
28484;DHT22;15704;48.834;8.736;2023-06-26T01:26:19;23.90;72.80
28484;DHT22;15704;48.834;8.736;2023-06-26T01:28:47;23.90;72.80
28484;DHT22;15704;48.834;8.736;2023-06-26T01:31:15;23.90;72.90
28484;DHT22;15704;48.834;8.736;2023-06-26T01:33:43;23.90;72.70
28484;DHT22;15704;48.834;8.736;2023-06-26T01:36:10;23.90;72.70
28484;DHT22;15704;48.834;8.736;2023-06-26T01:38:37;23.90;72.70
28484;DHT22;15704;48.834;8.736;2023-06-26T01:41:07;23.90;72.70
28484;DHT22;15704;48.834;8.736;2023-06-26T01:46:35;23.90;73.50
28484;DHT22;15704;48.834;8.736;2023-06-26T01:55:04;23.80;72.60
28484;DHT22;15704;48.834;8.736;2023-06-26T01:57:32;23.80;72.60
28484;DHT22;15704;48.834;8.736;2023-06-26T02:00:02;23.80;72.70
28484;DHT22;15704;48.834;8.736;2023-06-26T02:02:29;23.80;72.60
28484;DHT22;15704;48.834;8.736;2023-06-26T02:04:56;23.90;72.40
28484;DHT22;15704;48.834;8.736;2023-06-26T02:07:23;23.80;72.40
28484;DHT22;15704;48.834;8.736;2023-06-26T02:09:50;23.80;72.50
28484;DHT22;15704;48.834;8.736;2023-06-26T02:12:16;23.80;72.40
28484;DHT22;15704;48.834;8.736;2023-06-26T02:14:43;23.80;72.40
28484;DHT22;15704;48.834;8.736;2023-06-26T02:17:10;23.80;72.70
28484;DHT22;15704;48.834;8.736;2023-06-26T02:19:37;23.80;72.60
28484;DHT22;15704;48.834;8.736;2023-06-26T02:22:06;23.80;72.60
28484;DHT22;15704;48.834;8.736;2023-06-26T02:24:33;23.80;72.60
28484;DHT22;15704;48.834;8.736;2023-06-26T02:27:00;23.80;72.60
28484;DHT22;15704;48.834;8.736;2023-06-26T02:29:27;23.70;72.50
28484;DHT22;15704;48.834;8.736;2023-06-26T02:31:54;23.70;72.50
28484;DHT22;15704;48.834;8.736;2023-06-26T02:34:21;23.70;72.60
28484;DHT22;15704;48.834;8.736;2023-06-26T02:36:48;23.70;72.50
28484;DHT22;15704;48.834;8.736;2023-06-26T02:39:14;23.70;72.60
28484;DHT22;15704;48.834;8.736;2023-06-26T02:41:41;23.70;72.60
28484;DHT22;15704;48.834;8.736;2023-06-26T02:44:08;23.70;72.60
28484;DHT22;15704;48.834;8.736;2023-06-26T02:46:34;23.60;72.80
28484;DHT22;15704;48.834;8.736;2023-06-26T02:49:01;23.60;72.70
28484;DHT22;15704;48.834;8.736;2023-06-26T02:51:28;23.60;72.60
28484;DHT22;15704;48.834;8.736;2023-06-26T02:53:55;23.60;72.50
28484;DHT22;15704;48.834;8.736;2023-06-26T02:56:22;23.60;72.60
28484;DHT22;15704;48.834;8.736;2023-06-26T02:58:51;23.60;72.60
28484;DHT22;15704;48.834;8.736;2023-06-26T03:01:18;23.60;72.70
28484;DHT22;15704;48.834;8.736;2023-06-26T03:03:47;23.60;72.70
28484;DHT22;15704;48.834;8.736;2023-06-26T03:06:14;23.60;72.60
28484;DHT22;15704;48.834;8.736;2023-06-26T03:08:42;23.60;72.70
28484;DHT22;15704;48.834;8.736;2023-06-26T03:11:09;23.60;72.90
28484;DHT22;15704;48.834;8.736;2023-06-26T03:13:36;23.50;73.10
28484;DHT22;15704;48.834;8.736;2023-06-26T03:16:04;23.50;73.50
28484;DHT22;15704;48.834;8.736;2023-06-26T03:18:31;23.50;73.50
28484;DHT22;15704;48.834;8.736;2023-06-26T03:20:58;23.60;73.30
28484;DHT22;15704;48.834;8.736;2023-06-26T03:23:26;23.50;73.10
28484;DHT22;15704;48.834;8.736;2023-06-26T03:25:53;23.50;73.10
28484;DHT22;15704;48.834;8.736;2023-06-26T03:28:19;23.50;73.10
28484;DHT22;15704;48.834;8.736;2023-06-26T03:30:46;23.50;72.90
28484;DHT22;15704;48.834;8.736;2023-06-26T03:33:13;23.50;72.80
28484;DHT22;15704;48.834;8.736;2023-06-26T03:35:40;23.50;72.70
28484;DHT22;15704;48.834;8.736;2023-06-26T03:38:06;23.50;72.80
28484;DHT22;15704;48.834;8.736;2023-06-26T03:40:33;23.60;72.90
28484;DHT22;15704;48.834;8.736;2023-06-26T03:43:00;23.50;72.80
28484;DHT22;15704;48.834;8.736;2023-06-26T03:45:27;23.50;72.90
28484;DHT22;15704;48.834;8.736;2023-06-26T03:47:53;23.50;73.20
28484;DHT22;15704;48.834;8.736;2023-06-26T03:50:20;23.50;73.10
28484;DHT22;15704;48.834;8.736;2023-06-26T03:52:47;23.50;73.30
28484;DHT22;15704;48.834;8.736;2023-06-26T03:55:13;23.50;73.30
28484;DHT22;15704;48.834;8.736;2023-06-26T03:57:41;23.60;73.50
28484;DHT22;15704;48.834;8.736;2023-06-26T04:00:09;23.60;73.60
28484;DHT22;15704;48.834;8.736;2023-06-26T04:02:36;23.50;73.50
28484;DHT22;15704;48.834;8.736;2023-06-26T04:05:03;23.50;73.60
28484;DHT22;15704;48.834;8.736;2023-06-26T04:07:31;23.50;73.60
28484;DHT22;15704;48.834;8.736;2023-06-26T04:09:59;23.60;73.70
28484;DHT22;15704;48.834;8.736;2023-06-26T04:12:26;23.60;73.90
28484;DHT22;15704;48.834;8.736;2023-06-26T04:14:53;23.50;73.80
28484;DHT22;15704;48.834;8.736;2023-06-26T04:17:19;23.60;73.80
28484;DHT22;15704;48.834;8.736;2023-06-26T04:19:47;23.60;73.80
28484;DHT22;15704;48.834;8.736;2023-06-26T04:22:13;23.70;73.90
28484;DHT22;15704;48.834;8.736;2023-06-26T04:24:40;23.60;74.00
28484;DHT22;15704;48.834;8.736;2023-06-26T04:27:07;23.60;74.00
28484;DHT22;15704;48.834;8.736;2023-06-26T04:29:34;23.70;74.10
28484;DHT22;15704;48.834;8.736;2023-06-26T04:32:00;23.70;74.30
28484;DHT22;15704;48.834;8.736;2023-06-26T04:34:28;23.70;74.30
28484;DHT22;15704;48.834;8.736;2023-06-26T04:36:54;23.80;74.40
28484;DHT22;15704;48.834;8.736;2023-06-26T04:39:21;23.70;74.40
28484;DHT22;15704;48.834;8.736;2023-06-26T04:41:48;23.80;74.40
28484;DHT22;15704;48.834;8.736;2023-06-26T04:44:15;23.90;74.30
28484;DHT22;15704;48.834;8.736;2023-06-26T04:46:42;23.90;74.10
28484;DHT22;15704;48.834;8.736;2023-06-26T04:49:09;24.00;74.10
28484;DHT22;15704;48.834;8.736;2023-06-26T04:51:36;24.10;74.80
28484;DHT22;15704;48.834;8.736;2023-06-26T04:54:10;24.10;74.50
28484;DHT22;15704;48.834;8.736;2023-06-26T04:56:37;24.10;74.90
28484;DHT22;15704;48.834;8.736;2023-06-26T04:59:06;24.10;73.70
28484;DHT22;15704;48.834;8.736;2023-06-26T05:01:33;24.10;74.50
28484;DHT22;15704;48.834;8.736;2023-06-26T05:04:00;24.10;75.10
28484;DHT22;15704;48.834;8.736;2023-06-26T05:06:26;24.10;75.30
28484;DHT22;15704;48.834;8.736;2023-06-26T05:08:53;24.10;75.10
28484;DHT22;15704;48.834;8.736;2023-06-26T05:11:20;24.20;75.20
28484;DHT22;15704;48.834;8.736;2023-06-26T05:13:47;24.20;75.70
28484;DHT22;15704;48.834;8.736;2023-06-26T05:16:14;24.20;75.70
28484;DHT22;15704;48.834;8.736;2023-06-26T05:18:40;24.20;75.50
28484;DHT22;15704;48.834;8.736;2023-06-26T05:21:07;24.20;75.10
28484;DHT22;15704;48.834;8.736;2023-06-26T05:23:34;24.20;75.40
28484;DHT22;15704;48.834;8.736;2023-06-26T05:26:02;24.30;75.10
28484;DHT22;15704;48.834;8.736;2023-06-26T05:28:30;24.30;74.80
28484;DHT22;15704;48.834;8.736;2023-06-26T05:30:59;24.30;75.40
28484;DHT22;15704;48.834;8.736;2023-06-26T05:33:27;24.30;76.70
28484;DHT22;15704;48.834;8.736;2023-06-26T05:35:55;24.30;76.90
28484;DHT22;15704;48.834;8.736;2023-06-26T05:38:22;24.30;77.00
28484;DHT22;15704;48.834;8.736;2023-06-26T05:40:49;24.30;77.20
28484;DHT22;15704;48.834;8.736;2023-06-26T05:43:16;24.30;77.20
28484;DHT22;15704;48.834;8.736;2023-06-26T05:45:53;24.30;77.40
28484;DHT22;15704;48.834;8.736;2023-06-26T05:48:20;24.30;77.60
28484;DHT22;15704;48.834;8.736;2023-06-26T05:50:47;24.40;77.90
28484;DHT22;15704;48.834;8.736;2023-06-26T05:53:14;24.40;77.80
28484;DHT22;15704;48.834;8.736;2023-06-26T05:55:41;24.40;78.10
28484;DHT22;15704;48.834;8.736;2023-06-26T05:58:10;24.40;77.90
28484;DHT22;15704;48.834;8.736;2023-06-26T06:00:39;24.40;78.40
28484;DHT22;15704;48.834;8.736;2023-06-26T06:03:06;24.50;78.50
28484;DHT22;15704;48.834;8.736;2023-06-26T06:05:33;24.40;78.80
28484;DHT22;15704;48.834;8.736;2023-06-26T06:08:00;24.50;77.10
28484;DHT22;15704;48.834;8.736;2023-06-26T06:10:27;24.50;77.10
28484;DHT22;15704;48.834;8.736;2023-06-26T06:12:54;24.50;77.60
28484;DHT22;15704;48.834;8.736;2023-06-26T06:15:21;24.50;77.70
28484;DHT22;15704;48.834;8.736;2023-06-26T06:17:48;24.50;77.80
28484;DHT22;15704;48.834;8.736;2023-06-26T06:20:14;24.50;77.60
28484;DHT22;15704;48.834;8.736;2023-06-26T06:22:41;24.50;77.90
28484;DHT22;15704;48.834;8.736;2023-06-26T06:25:08;24.60;77.40
28484;DHT22;15704;48.834;8.736;2023-06-26T06:27:35;24.60;77.60
28484;DHT22;15704;48.834;8.736;2023-06-26T06:30:02;24.60;77.50
28484;DHT22;15704;48.834;8.736;2023-06-26T06:32:31;24.60;77.60
28484;DHT22;15704;48.834;8.736;2023-06-26T06:34:57;24.60;78.30
28484;DHT22;15704;48.834;8.736;2023-06-26T06:37:24;24.60;77.80
28484;DHT22;15704;48.834;8.736;2023-06-26T06:39:51;24.70;77.80
28484;DHT22;15704;48.834;8.736;2023-06-26T06:42:18;24.70;77.80
28484;DHT22;15704;48.834;8.736;2023-06-26T06:44:44;24.70;79.40
28484;DHT22;15704;48.834;8.736;2023-06-26T06:47:11;24.70;78.10
28484;DHT22;15704;48.834;8.736;2023-06-26T06:49:38;24.70;78.10
28484;DHT22;15704;48.834;8.736;2023-06-26T06:52:05;24.70;78.20
28484;DHT22;15704;48.834;8.736;2023-06-26T06:54:31;24.80;78.30
28484;DHT22;15704;48.834;8.736;2023-06-26T06:56:58;24.80;78.30
28484;DHT22;15704;48.834;8.736;2023-06-26T06:59:25;24.80;78.20
28484;DHT22;15704;48.834;8.736;2023-06-26T07:01:52;24.80;78.10
28484;DHT22;15704;48.834;8.736;2023-06-26T07:04:18;24.90;78.50
28484;DHT22;15704;48.834;8.736;2023-06-26T07:06:45;24.90;78.30
28484;DHT22;15704;48.834;8.736;2023-06-26T07:09:12;24.90;78.90
28484;DHT22;15704;48.834;8.736;2023-06-26T07:11:38;24.80;78.60
28484;DHT22;15704;48.834;8.736;2023-06-26T07:14:05;24.80;78.70
28484;DHT22;15704;48.834;8.736;2023-06-26T07:16:32;24.80;78.70
28484;DHT22;15704;48.834;8.736;2023-06-26T07:18:58;24.80;78.70
28484;DHT22;15704;48.834;8.736;2023-06-26T07:21:25;24.90;78.80
28484;DHT22;15704;48.834;8.736;2023-06-26T07:23:52;24.90;78.80
28484;DHT22;15704;48.834;8.736;2023-06-26T07:26:19;24.90;78.80
28484;DHT22;15704;48.834;8.736;2023-06-26T07:29:05;24.90;78.80
28484;DHT22;15704;48.834;8.736;2023-06-26T07:31:32;24.90;78.80
28484;DHT22;15704;48.834;8.736;2023-06-26T07:33:59;24.90;78.70
28484;DHT22;15704;48.834;8.736;2023-06-26T07:36:26;24.90;78.30
28484;DHT22;15704;48.834;8.736;2023-06-26T07:38:52;24.90;78.40
28484;DHT22;15704;48.834;8.736;2023-06-26T07:41:19;24.90;78.40
28484;DHT22;15704;48.834;8.736;2023-06-26T07:43:46;24.90;78.20
28484;DHT22;15704;48.834;8.736;2023-06-26T07:46:12;25.00;78.60
28484;DHT22;15704;48.834;8.736;2023-06-26T07:48:40;25.00;78.70
28484;DHT22;15704;48.834;8.736;2023-06-26T07:51:06;25.00;78.50
28484;DHT22;15704;48.834;8.736;2023-06-26T07:53:33;25.10;78.60
28484;DHT22;15704;48.834;8.736;2023-06-26T07:56:00;25.10;78.70
28484;DHT22;15704;48.834;8.736;2023-06-26T07:58:27;25.10;78.90
28484;DHT22;15704;48.834;8.736;2023-06-26T08:00:53;25.10;79.20
28484;DHT22;15704;48.834;8.736;2023-06-26T08:03:20;25.20;78.70
28484;DHT22;15704;48.834;8.736;2023-06-26T08:06:00;25.20;79.50
28484;DHT22;15704;48.834;8.736;2023-06-26T08:08:27;25.20;79.20
28484;DHT22;15704;48.834;8.736;2023-06-26T08:10:54;25.20;79.50
28484;DHT22;15704;48.834;8.736;2023-06-26T08:13:20;25.30;79.70
28484;DHT22;15704;48.834;8.736;2023-06-26T08:15:47;25.30;79.50
28484;DHT22;15704;48.834;8.736;2023-06-26T08:18:14;25.30;79.20
28484;DHT22;15704;48.834;8.736;2023-06-26T08:20:41;25.30;79.40
28484;DHT22;15704;48.834;8.736;2023-06-26T08:23:07;25.40;79.00
28484;DHT22;15704;48.834;8.736;2023-06-26T08:25:36;25.40;78.70
28484;DHT22;15704;48.834;8.736;2023-06-26T08:28:03;25.40;78.30
28484;DHT22;15704;48.834;8.736;2023-06-26T08:30:30;25.40;78.50
28484;DHT22;15704;48.834;8.736;2023-06-26T08:32:56;25.50;78.90
28484;DHT22;15704;48.834;8.736;2023-06-26T08:35:23;25.50;79.30
28484;DHT22;15704;48.834;8.736;2023-06-26T08:37:50;25.50;79.30
28484;DHT22;15704;48.834;8.736;2023-06-26T08:40:18;25.50;79.10
28484;DHT22;15704;48.834;8.736;2023-06-26T08:42:45;25.60;79.20
28484;DHT22;15704;48.834;8.736;2023-06-26T08:45:12;25.60;79.20
28484;DHT22;15704;48.834;8.736;2023-06-26T08:47:41;25.60;78.50
28484;DHT22;15704;48.834;8.736;2023-06-26T08:50:12;25.70;78.10
28484;DHT22;15704;48.834;8.736;2023-06-26T08:52:43;25.70;77.80
28484;DHT22;15704;48.834;8.736;2023-06-26T08:55:12;25.80;77.70
28484;DHT22;15704;48.834;8.736;2023-06-26T08:57:41;25.80;78.20
28484;DHT22;15704;48.834;8.736;2023-06-26T09:00:10;25.90;78.80
28484;DHT22;15704;48.834;8.736;2023-06-26T09:02:38;25.90;78.90
28484;DHT22;15704;48.834;8.736;2023-06-26T09:05:07;26.00;78.30
28484;DHT22;15704;48.834;8.736;2023-06-26T09:07:34;26.00;78.10
28484;DHT22;15704;48.834;8.736;2023-06-26T09:10:01;26.10;77.80
28484;DHT22;15704;48.834;8.736;2023-06-26T09:12:27;26.20;77.50
28484;DHT22;15704;48.834;8.736;2023-06-26T09:14:56;26.20;76.60
28484;DHT22;15704;48.834;8.736;2023-06-26T09:17:30;26.20;77.00
28484;DHT22;15704;48.834;8.736;2023-06-26T09:19:58;26.20;77.30
28484;DHT22;15704;48.834;8.736;2023-06-26T09:22:25;26.30;77.10
28484;DHT22;15704;48.834;8.736;2023-06-26T09:24:53;26.30;77.30
28484;DHT22;15704;48.834;8.736;2023-06-26T09:27:20;26.30;77.80
28484;DHT22;15704;48.834;8.736;2023-06-26T09:29:47;26.40;78.70
28484;DHT22;15704;48.834;8.736;2023-06-26T09:32:14;26.40;78.80
28484;DHT22;15704;48.834;8.736;2023-06-26T09:34:42;26.50;78.70
28484;DHT22;15704;48.834;8.736;2023-06-26T09:37:13;26.50;78.80
28484;DHT22;15704;48.834;8.736;2023-06-26T09:39:40;26.50;78.70
28484;DHT22;15704;48.834;8.736;2023-06-26T09:42:07;26.50;80.20
28484;DHT22;15704;48.834;8.736;2023-06-26T09:44:34;26.60;80.60
28484;DHT22;15704;48.834;8.736;2023-06-26T09:47:04;26.50;80.20
28484;DHT22;15704;48.834;8.736;2023-06-26T09:49:31;26.50;80.70
28484;DHT22;15704;48.834;8.736;2023-06-26T09:52:00;26.50;81.00
28484;DHT22;15704;48.834;8.736;2023-06-26T09:54:28;26.50;81.20
28484;DHT22;15704;48.834;8.736;2023-06-26T09:57:07;26.50;80.80
28484;DHT22;15704;48.834;8.736;2023-06-26T09:59:35;26.50;80.00
28484;DHT22;15704;48.834;8.736;2023-06-26T10:02:02;26.50;80.50
28484;DHT22;15704;48.834;8.736;2023-06-26T10:04:29;26.50;79.90
28484;DHT22;15704;48.834;8.736;2023-06-26T10:06:56;26.50;79.90
28484;DHT22;15704;48.834;8.736;2023-06-26T10:09:24;26.50;80.10
28484;DHT22;15704;48.834;8.736;2023-06-26T10:12:06;26.40;80.40
28484;DHT22;15704;48.834;8.736;2023-06-26T10:14:35;26.40;80.20
28484;DHT22;15704;48.834;8.736;2023-06-26T10:17:11;26.40;80.60
28484;DHT22;15704;48.834;8.736;2023-06-26T10:19:44;26.40;81.60
28484;DHT22;15704;48.834;8.736;2023-06-26T10:22:15;26.30;82.40
28484;DHT22;15704;48.834;8.736;2023-06-26T10:24:43;26.30;82.80
28484;DHT22;15704;48.834;8.736;2023-06-26T10:27:15;26.20;83.00
28484;DHT22;15704;48.834;8.736;2023-06-26T10:29:48;26.20;83.60
28484;DHT22;15704;48.834;8.736;2023-06-26T10:32:17;26.20;83.70
28484;DHT22;15704;48.834;8.736;2023-06-26T10:34:44;26.20;83.10
28484;DHT22;15704;48.834;8.736;2023-06-26T10:37:12;26.30;83.50
28484;DHT22;15704;48.834;8.736;2023-06-26T10:39:47;26.30;84.40
28484;DHT22;15704;48.834;8.736;2023-06-26T10:42:17;26.30;84.10
28484;DHT22;15704;48.834;8.736;2023-06-26T10:44:45;26.40;83.90
28484;DHT22;15704;48.834;8.736;2023-06-26T10:47:32;26.40;84.00
28484;DHT22;15704;48.834;8.736;2023-06-26T10:50:28;26.40;83.70
28484;DHT22;15704;48.834;8.736;2023-06-26T10:55:34;26.50;83.50
28484;DHT22;15704;48.834;8.736;2023-06-26T10:58:02;26.50;83.20
28484;DHT22;15704;48.834;8.736;2023-06-26T11:00:29;26.50;83.30
28484;DHT22;15704;48.834;8.736;2023-06-26T11:02:56;26.50;83.00
28484;DHT22;15704;48.834;8.736;2023-06-26T11:05:32;26.60;83.60
28484;DHT22;15704;48.834;8.736;2023-06-26T11:08:07;26.60;83.00
28484;DHT22;15704;48.834;8.736;2023-06-26T11:10:52;26.60;83.30
28484;DHT22;15704;48.834;8.736;2023-06-26T11:13:20;26.50;79.90
28484;DHT22;15704;48.834;8.736;2023-06-26T11:15:49;26.50;80.90
28484;DHT22;15704;48.834;8.736;2023-06-26T11:18:16;26.40;82.20
28484;DHT22;15704;48.834;8.736;2023-06-26T11:20:43;26.40;82.70
28484;DHT22;15704;48.834;8.736;2023-06-26T11:23:11;26.40;83.50
28484;DHT22;15704;48.834;8.736;2023-06-26T11:25:38;26.40;82.50
28484;DHT22;15704;48.834;8.736;2023-06-26T11:28:05;26.40;84.10
28484;DHT22;15704;48.834;8.736;2023-06-26T11:30:32;26.40;84.70
28484;DHT22;15704;48.834;8.736;2023-06-26T11:33:06;26.40;82.50
28484;DHT22;15704;48.834;8.736;2023-06-26T11:35:33;26.40;83.50
28484;DHT22;15704;48.834;8.736;2023-06-26T11:38:01;26.40;83.50
28484;DHT22;15704;48.834;8.736;2023-06-26T11:40:33;26.40;84.30
28484;DHT22;15704;48.834;8.736;2023-06-26T11:43:02;26.40;83.70
28484;DHT22;15704;48.834;8.736;2023-06-26T11:45:31;26.40;83.80
28484;DHT22;15704;48.834;8.736;2023-06-26T11:47:59;26.40;83.30
28484;DHT22;15704;48.834;8.736;2023-06-26T11:50:27;26.40;83.90
28484;DHT22;15704;48.834;8.736;2023-06-26T11:52:55;26.40;85.10
28484;DHT22;15704;48.834;8.736;2023-06-26T11:55:23;26.40;84.30
28484;DHT22;15704;48.834;8.736;2023-06-26T11:57:53;26.40;85.40
28484;DHT22;15704;48.834;8.736;2023-06-26T12:00:21;26.40;84.60
28484;DHT22;15704;48.834;8.736;2023-06-26T12:02:50;26.40;84.10
28484;DHT22;15704;48.834;8.736;2023-06-26T12:05:21;26.30;85.00
28484;DHT22;15704;48.834;8.736;2023-06-26T12:07:49;26.30;84.40
28484;DHT22;15704;48.834;8.736;2023-06-26T12:10:17;26.40;85.20
28484;DHT22;15704;48.834;8.736;2023-06-26T12:12:45;26.40;85.00
28484;DHT22;15704;48.834;8.736;2023-06-26T12:15:15;26.50;85.00
28484;DHT22;15704;48.834;8.736;2023-06-26T12:17:42;26.50;85.30
28484;DHT22;15704;48.834;8.736;2023-06-26T12:20:21;26.50;84.90
28484;DHT22;15704;48.834;8.736;2023-06-26T12:22:49;26.50;84.30
28484;DHT22;15704;48.834;8.736;2023-06-26T12:25:16;26.50;84.80
28484;DHT22;15704;48.834;8.736;2023-06-26T12:27:47;26.60;83.90
28484;DHT22;15704;48.834;8.736;2023-06-26T12:30:14;26.60;83.50
28484;DHT22;15704;48.834;8.736;2023-06-26T12:32:45;26.60;83.20
28484;DHT22;15704;48.834;8.736;2023-06-26T12:35:13;26.60;82.60
28484;DHT22;15704;48.834;8.736;2023-06-26T12:37:41;26.60;82.20
28484;DHT22;15704;48.834;8.736;2023-06-26T12:40:17;26.50;82.20
28484;DHT22;15704;48.834;8.736;2023-06-26T12:42:45;26.60;82.50
28484;DHT22;15704;48.834;8.736;2023-06-26T12:45:13;26.60;82.30
28484;DHT22;15704;48.834;8.736;2023-06-26T12:48:15;26.60;81.90
28484;DHT22;15704;48.834;8.736;2023-06-26T12:50:44;26.60;82.10
28484;DHT22;15704;48.834;8.736;2023-06-26T12:53:11;26.60;81.40
28484;DHT22;15704;48.834;8.736;2023-06-26T12:55:40;26.70;81.40
28484;DHT22;15704;48.834;8.736;2023-06-26T12:58:06;26.60;81.20
28484;DHT22;15704;48.834;8.736;2023-06-26T13:00:35;26.60;81.20
28484;DHT22;15704;48.834;8.736;2023-06-26T13:03:01;26.60;81.00
28484;DHT22;15704;48.834;8.736;2023-06-26T13:05:28;26.60;80.70
28484;DHT22;15704;48.834;8.736;2023-06-26T13:07:55;26.60;80.60
28484;DHT22;15704;48.834;8.736;2023-06-26T13:10:22;26.60;80.00
28484;DHT22;15704;48.834;8.736;2023-06-26T13:12:49;26.60;79.10
28484;DHT22;15704;48.834;8.736;2023-06-26T13:15:15;26.60;78.40
28484;DHT22;15704;48.834;8.736;2023-06-26T13:17:42;26.60;77.70
28484;DHT22;15704;48.834;8.736;2023-06-26T13:20:10;26.60;78.20
28484;DHT22;15704;48.834;8.736;2023-06-26T13:22:37;26.70;78.30
28484;DHT22;15704;48.834;8.736;2023-06-26T13:25:04;26.70;77.90
28484;DHT22;15704;48.834;8.736;2023-06-26T13:27:31;26.60;77.70
28484;DHT22;15704;48.834;8.736;2023-06-26T13:29:58;26.60;77.80
28484;DHT22;15704;48.834;8.736;2023-06-26T13:32:24;26.50;78.00
28484;DHT22;15704;48.834;8.736;2023-06-26T13:34:51;26.40;77.40
28484;DHT22;15704;48.834;8.736;2023-06-26T13:37:18;26.50;77.40
28484;DHT22;15704;48.834;8.736;2023-06-26T13:39:45;26.40;76.80
28484;DHT22;15704;48.834;8.736;2023-06-26T13:42:17;26.40;77.20
28484;DHT22;15704;48.834;8.736;2023-06-26T13:44:44;26.40;77.40
28484;DHT22;15704;48.834;8.736;2023-06-26T13:47:27;26.50;77.90
28484;DHT22;15704;48.834;8.736;2023-06-26T13:49:53;26.60;77.60
28484;DHT22;15704;48.834;8.736;2023-06-26T13:52:21;26.60;78.40
28484;DHT22;15704;48.834;8.736;2023-06-26T13:54:47;26.70;78.50
28484;DHT22;15704;48.834;8.736;2023-06-26T13:57:14;26.70;78.50
28484;DHT22;15704;48.834;8.736;2023-06-26T13:59:41;26.70;78.40
28484;DHT22;15704;48.834;8.736;2023-06-26T14:02:08;26.70;78.20
28484;DHT22;15704;48.834;8.736;2023-06-26T14:04:35;26.80;78.40
28484;DHT22;15704;48.834;8.736;2023-06-26T14:07:02;26.90;78.20
28484;DHT22;15704;48.834;8.736;2023-06-26T14:09:30;26.90;78.40
28484;DHT22;15704;48.834;8.736;2023-06-26T14:11:58;26.90;77.70
28484;DHT22;15704;48.834;8.736;2023-06-26T14:14:24;26.90;77.80
28484;DHT22;15704;48.834;8.736;2023-06-26T14:16:51;26.90;77.80
28484;DHT22;15704;48.834;8.736;2023-06-26T14:19:18;26.90;77.20
28484;DHT22;15704;48.834;8.736;2023-06-26T14:21:45;26.90;77.40
28484;DHT22;15704;48.834;8.736;2023-06-26T14:24:12;27.00;77.80
28484;DHT22;15704;48.834;8.736;2023-06-26T14:26:38;26.90;77.60
28484;DHT22;15704;48.834;8.736;2023-06-26T14:29:05;27.00;77.30
28484;DHT22;15704;48.834;8.736;2023-06-26T14:31:32;27.00;77.30
28484;DHT22;15704;48.834;8.736;2023-06-26T14:33:59;26.90;76.60
28484;DHT22;15704;48.834;8.736;2023-06-26T14:36:26;27.00;76.70
28484;DHT22;15704;48.834;8.736;2023-06-26T14:38:58;27.00;76.60
28484;DHT22;15704;48.834;8.736;2023-06-26T14:41:26;27.00;76.50
28484;DHT22;15704;48.834;8.736;2023-06-26T14:43:54;27.00;76.20
28484;DHT22;15704;48.834;8.736;2023-06-26T14:46:21;27.00;76.30
28484;DHT22;15704;48.834;8.736;2023-06-26T14:48:49;27.00;76.30
28484;DHT22;15704;48.834;8.736;2023-06-26T14:51:17;27.00;76.10
28484;DHT22;15704;48.834;8.736;2023-06-26T14:53:44;27.00;76.30
28484;DHT22;15704;48.834;8.736;2023-06-26T14:56:11;27.00;76.20
28484;DHT22;15704;48.834;8.736;2023-06-26T14:58:38;27.00;76.10
28484;DHT22;15704;48.834;8.736;2023-06-26T15:01:05;27.00;76.30
28484;DHT22;15704;48.834;8.736;2023-06-26T15:03:32;27.10;75.60
28484;DHT22;15704;48.834;8.736;2023-06-26T15:06:00;27.10;76.00
28484;DHT22;15704;48.834;8.736;2023-06-26T15:08:26;27.10;75.60
28484;DHT22;15704;48.834;8.736;2023-06-26T15:10:53;27.10;75.70
28484;DHT22;15704;48.834;8.736;2023-06-26T15:13:20;27.10;75.40
28484;DHT22;15704;48.834;8.736;2023-06-26T15:15:46;27.10;75.60
28484;DHT22;15704;48.834;8.736;2023-06-26T15:18:13;27.10;75.50
28484;DHT22;15704;48.834;8.736;2023-06-26T15:20:40;27.10;75.00
28484;DHT22;15704;48.834;8.736;2023-06-26T15:23:07;27.10;74.70
28484;DHT22;15704;48.834;8.736;2023-06-26T15:25:34;27.10;75.00
28484;DHT22;15704;48.834;8.736;2023-06-26T15:28:04;27.10;74.30
28484;DHT22;15704;48.834;8.736;2023-06-26T15:30:31;27.10;75.10
28484;DHT22;15704;48.834;8.736;2023-06-26T15:32:58;27.10;75.30
28484;DHT22;15704;48.834;8.736;2023-06-26T15:35:25;27.10;74.90
28484;DHT22;15704;48.834;8.736;2023-06-26T15:37:53;27.10;75.10
28484;DHT22;15704;48.834;8.736;2023-06-26T15:40:20;27.10;73.30
28484;DHT22;15704;48.834;8.736;2023-06-26T15:42:48;27.10;74.10
28484;DHT22;15704;48.834;8.736;2023-06-26T15:45:16;27.10;73.80
28484;DHT22;15704;48.834;8.736;2023-06-26T15:47:49;27.00;73.90